sensor_id;sensor_type;location;lat;lon;timestamp;P1;durP1;ratioP1;P2;durP2;ratioP2
70967;SDS011;58629;48.808;8.820;2024-01-25T00:01:56;15.00;;;1.67;;
70967;SDS011;58629;48.808;8.820;2024-01-25T00:04:22;11.23;;;1.40;;
70967;SDS011;58629;48.808;8.820;2024-01-25T00:06:47;12.57;;;1.67;;
70967;SDS011;58629;48.808;8.820;2024-01-25T00:09:12;16.30;;;2.27;;
70967;SDS011;58629;48.808;8.820;2024-01-25T00:11:38;12.77;;;1.53;;
70967;SDS011;58629;48.808;8.820;2024-01-25T00:14:03;15.10;;;1.60;;
70967;SDS011;58629;48.808;8.820;2024-01-25T00:16:29;15.45;;;1.90;;
70967;SDS011;58629;48.808;8.820;2024-01-25T00:18:55;13.37;;;2.10;;
70967;SDS011;58629;48.808;8.820;2024-01-25T00:21:20;11.90;;;1.50;;
70967;SDS011;58629;48.808;8.820;2024-01-25T00:23:45;13.07;;;1.70;;
70967;SDS011;58629;48.808;8.820;2024-01-25T00:26:11;14.55;;;1.75;;
70967;SDS011;58629;48.808;8.820;2024-01-25T00:28:36;13.55;;;1.63;;
70967;SDS011;58629;48.808;8.820;2024-01-25T00:31:01;9.57;;;1.70;;
70967;SDS011;58629;48.808;8.820;2024-01-25T00:33:27;12.17;;;1.60;;
70967;SDS011;58629;48.808;8.820;2024-01-25T00:35:52;10.70;;;1.50;;
70967;SDS011;58629;48.808;8.820;2024-01-25T00:38:18;17.35;;;1.85;;
70967;SDS011;58629;48.808;8.820;2024-01-25T00:40:44;12.73;;;1.60;;
70967;SDS011;58629;48.808;8.820;2024-01-25T00:43:10;15.15;;;1.60;;
70967;SDS011;58629;48.808;8.820;2024-01-25T00:45:36;9.27;;;1.23;;
70967;SDS011;58629;48.808;8.820;2024-01-25T00:48:02;8.50;;;1.50;;
70967;SDS011;58629;48.808;8.820;2024-01-25T00:50:27;16.93;;;1.60;;
70967;SDS011;58629;48.808;8.820;2024-01-25T00:52:53;9.93;;;1.33;;
70967;SDS011;58629;48.808;8.820;2024-01-25T00:55:19;13.97;;;2.00;;
70967;SDS011;58629;48.808;8.820;2024-01-25T00:57:44;12.73;;;1.45;;
70967;SDS011;58629;48.808;8.820;2024-01-25T01:00:10;10.17;;;1.67;;
70967;SDS011;58629;48.808;8.820;2024-01-25T01:02:38;9.98;;;1.23;;
70967;SDS011;58629;48.808;8.820;2024-01-25T01:05:07;7.85;;;1.80;;
70967;SDS011;58629;48.808;8.820;2024-01-25T01:07:33;8.17;;;1.40;;
70967;SDS011;58629;48.808;8.820;2024-01-25T01:09:59;14.45;;;1.67;;
70967;SDS011;58629;48.808;8.820;2024-01-25T01:12:24;13.37;;;1.93;;
70967;SDS011;58629;48.808;8.820;2024-01-25T01:14:50;11.57;;;1.83;;
70967;SDS011;58629;48.808;8.820;2024-01-25T01:17:15;10.47;;;1.73;;
70967;SDS011;58629;48.808;8.820;2024-01-25T01:19:41;9.98;;;1.80;;
70967;SDS011;58629;48.808;8.820;2024-01-25T01:22:06;14.03;;;1.90;;
70967;SDS011;58629;48.808;8.820;2024-01-25T01:24:31;10.00;;;1.60;;
70967;SDS011;58629;48.808;8.820;2024-01-25T01:26:57;10.50;;;1.90;;
70967;SDS011;58629;48.808;8.820;2024-01-25T01:29:23;10.50;;;1.20;;
70967;SDS011;58629;48.808;8.820;2024-01-25T01:31:48;11.73;;;1.33;;
70967;SDS011;58629;48.808;8.820;2024-01-25T01:34:14;9.33;;;1.37;;
70967;SDS011;58629;48.808;8.820;2024-01-25T01:36:39;10.43;;;1.30;;
70967;SDS011;58629;48.808;8.820;2024-01-25T01:39:04;10.18;;;1.55;;
70967;SDS011;58629;48.808;8.820;2024-01-25T01:41:31;15.33;;;1.67;;
70967;SDS011;58629;48.808;8.820;2024-01-25T01:43:56;12.82;;;1.95;;
70967;SDS011;58629;48.808;8.820;2024-01-25T01:46:43;6.50;;;1.20;;
70967;SDS011;58629;48.808;8.820;2024-01-25T01:49:08;13.38;;;1.50;;
70967;SDS011;58629;48.808;8.820;2024-01-25T01:51:36;12.07;;;1.63;;
70967;SDS011;58629;48.808;8.820;2024-01-25T01:54:03;11.45;;;1.65;;
70967;SDS011;58629;48.808;8.820;2024-01-25T01:56:31;14.20;;;1.35;;
70967;SDS011;58629;48.808;8.820;2024-01-25T01:58:58;12.32;;;1.58;;
70967;SDS011;58629;48.808;8.820;2024-01-25T02:01:25;8.47;;;1.50;;
70967;SDS011;58629;48.808;8.820;2024-01-25T02:03:50;9.57;;;1.17;;
70967;SDS011;58629;48.808;8.820;2024-01-25T02:06:16;9.60;;;1.50;;
70967;SDS011;58629;48.808;8.820;2024-01-25T02:08:41;11.50;;;1.53;;
70967;SDS011;58629;48.808;8.820;2024-01-25T02:11:07;12.77;;;1.70;;
70967;SDS011;58629;48.808;8.820;2024-01-25T02:13:34;7.65;;;1.40;;
70967;SDS011;58629;48.808;8.820;2024-01-25T02:15:59;12.70;;;1.43;;
70967;SDS011;58629;48.808;8.820;2024-01-25T02:18:25;12.40;;;1.60;;
70967;SDS011;58629;48.808;8.820;2024-01-25T02:20:51;11.10;;;1.73;;
70967;SDS011;58629;48.808;8.820;2024-01-25T02:23:17;8.73;;;1.27;;
70967;SDS011;58629;48.808;8.820;2024-01-25T02:25:42;13.27;;;1.60;;
70967;SDS011;58629;48.808;8.820;2024-01-25T02:28:08;10.67;;;1.43;;
70967;SDS011;58629;48.808;8.820;2024-01-25T02:30:33;9.07;;;1.67;;
70967;SDS011;58629;48.808;8.820;2024-01-25T02:32:58;9.38;;;1.40;;
70967;SDS011;58629;48.808;8.820;2024-01-25T02:35:23;7.45;;;1.23;;
70967;SDS011;58629;48.808;8.820;2024-01-25T02:37:49;7.23;;;1.47;;
70967;SDS011;58629;48.808;8.820;2024-01-25T02:40:15;9.80;;;1.63;;
70967;SDS011;58629;48.808;8.820;2024-01-25T02:42:41;12.27;;;1.80;;
70967;SDS011;58629;48.808;8.820;2024-01-25T02:45:06;12.63;;;1.67;;
70967;SDS011;58629;48.808;8.820;2024-01-25T02:47:32;11.50;;;1.58;;
70967;SDS011;58629;48.808;8.820;2024-01-25T02:49:57;8.57;;;1.20;;
70967;SDS011;58629;48.808;8.820;2024-01-25T02:52:23;11.20;;;1.37;;
70967;SDS011;58629;48.808;8.820;2024-01-25T02:54:48;9.80;;;1.20;;
70967;SDS011;58629;48.808;8.820;2024-01-25T02:57:14;6.57;;;1.37;;
70967;SDS011;58629;48.808;8.820;2024-01-25T02:59:39;10.48;;;1.33;;
70967;SDS011;58629;48.808;8.820;2024-01-25T03:02:04;10.40;;;1.37;;
70967;SDS011;58629;48.808;8.820;2024-01-25T03:04:30;10.63;;;1.40;;
70967;SDS011;58629;48.808;8.820;2024-01-25T03:06:55;9.23;;;1.80;;
70967;SDS011;58629;48.808;8.820;2024-01-25T03:09:21;10.37;;;1.50;;
70967;SDS011;58629;48.808;8.820;2024-01-25T03:11:48;14.18;;;1.95;;
70967;SDS011;58629;48.808;8.820;2024-01-25T03:14:14;13.48;;;1.55;;
70967;SDS011;58629;48.808;8.820;2024-01-25T03:16:39;10.83;;;1.50;;
70967;SDS011;58629;48.808;8.820;2024-01-25T03:19:05;13.83;;;1.50;;
70967;SDS011;58629;48.808;8.820;2024-01-25T03:21:30;9.20;;;1.10;;
70967;SDS011;58629;48.808;8.820;2024-01-25T03:23:55;14.20;;;1.93;;
70967;SDS011;58629;48.808;8.820;2024-01-25T03:26:21;9.53;;;1.10;;
70967;SDS011;58629;48.808;8.820;2024-01-25T03:28:46;13.85;;;1.48;;
70967;SDS011;58629;48.808;8.820;2024-01-25T03:31:11;11.13;;;1.35;;
70967;SDS011;58629;48.808;8.820;2024-01-25T03:33:37;11.30;;;1.33;;
70967;SDS011;58629;48.808;8.820;2024-01-25T03:36:02;15.73;;;2.93;;
70967;SDS011;58629;48.808;8.820;2024-01-25T03:38:29;13.38;;;1.70;;
70967;SDS011;58629;48.808;8.820;2024-01-25T03:40:54;8.90;;;1.50;;
70967;SDS011;58629;48.808;8.820;2024-01-25T03:43:21;12.40;;;1.48;;
70967;SDS011;58629;48.808;8.820;2024-01-25T03:45:48;7.97;;;1.55;;
70967;SDS011;58629;48.808;8.820;2024-01-25T03:48:14;9.47;;;1.37;;
70967;SDS011;58629;48.808;8.820;2024-01-25T03:50:39;10.13;;;1.70;;
70967;SDS011;58629;48.808;8.820;2024-01-25T03:53:05;8.67;;;1.43;;
70967;SDS011;58629;48.808;8.820;2024-01-25T03:55:31;11.88;;;1.38;;
70967;SDS011;58629;48.808;8.820;2024-01-25T03:57:57;12.03;;;1.80;;
70967;SDS011;58629;48.808;8.820;2024-01-25T04:00:22;8.80;;;1.50;;
70967;SDS011;58629;48.808;8.820;2024-01-25T04:02:48;10.60;;;1.40;;
70967;SDS011;58629;48.808;8.820;2024-01-25T04:05:13;9.70;;;1.40;;
70967;SDS011;58629;48.808;8.820;2024-01-25T04:07:39;12.43;;;1.60;;
70967;SDS011;58629;48.808;8.820;2024-01-25T04:10:05;8.67;;;1.60;;
70967;SDS011;58629;48.808;8.820;2024-01-25T04:12:31;10.52;;;1.42;;
70967;SDS011;58629;48.808;8.820;2024-01-25T04:14:57;10.85;;;1.70;;
70967;SDS011;58629;48.808;8.820;2024-01-25T04:17:23;13.47;;;1.63;;
70967;SDS011;58629;48.808;8.820;2024-01-25T04:19:48;11.63;;;1.87;;
70967;SDS011;58629;48.808;8.820;2024-01-25T04:22:13;10.90;;;1.70;;
70967;SDS011;58629;48.808;8.820;2024-01-25T04:24:39;11.43;;;1.50;;
70967;SDS011;58629;48.808;8.820;2024-01-25T04:27:04;12.47;;;1.83;;
70967;SDS011;58629;48.808;8.820;2024-01-25T04:29:30;11.13;;;1.70;;
70967;SDS011;58629;48.808;8.820;2024-01-25T04:31:55;10.00;;;1.40;;
70967;SDS011;58629;48.808;8.820;2024-01-25T04:34:21;12.18;;;2.28;;
70967;SDS011;58629;48.808;8.820;2024-01-25T04:36:46;13.98;;;1.83;;
70967;SDS011;58629;48.808;8.820;2024-01-25T04:39:11;9.13;;;1.90;;
70967;SDS011;58629;48.808;8.820;2024-01-25T04:41:37;13.57;;;1.90;;
70967;SDS011;58629;48.808;8.820;2024-01-25T04:44:02;12.47;;;1.27;;
70967;SDS011;58629;48.808;8.820;2024-01-25T04:46:28;11.10;;;1.73;;
70967;SDS011;58629;48.808;8.820;2024-01-25T04:48:54;12.60;;;1.77;;
70967;SDS011;58629;48.808;8.820;2024-01-25T04:51:19;13.10;;;2.00;;
70967;SDS011;58629;48.808;8.820;2024-01-25T04:53:45;13.88;;;1.67;;
70967;SDS011;58629;48.808;8.820;2024-01-25T04:56:11;12.53;;;1.77;;
70967;SDS011;58629;48.808;8.820;2024-01-25T04:58:36;12.63;;;1.75;;
70967;SDS011;58629;48.808;8.820;2024-01-25T05:01:01;11.98;;;1.98;;
70967;SDS011;58629;48.808;8.820;2024-01-25T05:03:27;10.83;;;1.70;;
70967;SDS011;58629;48.808;8.820;2024-01-25T05:05:52;9.47;;;1.60;;
70967;SDS011;58629;48.808;8.820;2024-01-25T05:08:17;13.13;;;1.60;;
70967;SDS011;58629;48.808;8.820;2024-01-25T05:10:43;15.43;;;2.00;;
70967;SDS011;58629;48.808;8.820;2024-01-25T05:13:08;11.67;;;1.83;;
70967;SDS011;58629;48.808;8.820;2024-01-25T05:15:34;14.18;;;2.10;;
70967;SDS011;58629;48.808;8.820;2024-01-25T05:18:00;14.13;;;2.00;;
70967;SDS011;58629;48.808;8.820;2024-01-25T05:20:29;10.70;;;1.95;;
70967;SDS011;58629;48.808;8.820;2024-01-25T05:22:58;13.23;;;1.67;;
70967;SDS011;58629;48.808;8.820;2024-01-25T05:25:24;13.40;;;2.08;;
70967;SDS011;58629;48.808;8.820;2024-01-25T05:27:51;10.88;;;2.10;;
70967;SDS011;58629;48.808;8.820;2024-01-25T05:30:17;11.87;;;2.00;;
70967;SDS011;58629;48.808;8.820;2024-01-25T05:32:42;11.93;;;1.75;;
70967;SDS011;58629;48.808;8.820;2024-01-25T05:35:08;15.67;;;2.50;;
70967;SDS011;58629;48.808;8.820;2024-01-25T05:37:34;14.45;;;2.00;;
70967;SDS011;58629;48.808;8.820;2024-01-25T05:39:59;10.33;;;1.93;;
70967;SDS011;58629;48.808;8.820;2024-01-25T05:42:25;17.10;;;2.10;;
70967;SDS011;58629;48.808;8.820;2024-01-25T05:44:50;9.13;;;1.47;;
70967;SDS011;58629;48.808;8.820;2024-01-25T05:47:16;13.55;;;1.65;;
70967;SDS011;58629;48.808;8.820;2024-01-25T05:49:41;13.07;;;1.70;;
70967;SDS011;58629;48.808;8.820;2024-01-25T05:52:07;12.87;;;1.57;;
70967;SDS011;58629;48.808;8.820;2024-01-25T05:54:32;10.37;;;1.20;;
70967;SDS011;58629;48.808;8.820;2024-01-25T05:56:58;10.30;;;1.90;;
70967;SDS011;58629;48.808;8.820;2024-01-25T05:59:23;13.43;;;1.80;;
70967;SDS011;58629;48.808;8.820;2024-01-25T06:01:49;11.30;;;1.73;;
70967;SDS011;58629;48.808;8.820;2024-01-25T06:04:14;13.90;;;2.13;;
70967;SDS011;58629;48.808;8.820;2024-01-25T06:06:39;11.63;;;1.58;;
70967;SDS011;58629;48.808;8.820;2024-01-25T06:09:05;7.50;;;1.17;;
70967;SDS011;58629;48.808;8.820;2024-01-25T06:11:30;11.23;;;1.43;;
70967;SDS011;58629;48.808;8.820;2024-01-25T06:13:56;9.25;;;1.60;;
70967;SDS011;58629;48.808;8.820;2024-01-25T06:16:22;11.70;;;1.50;;
70967;SDS011;58629;48.808;8.820;2024-01-25T06:18:47;13.07;;;1.80;;
70967;SDS011;58629;48.808;8.820;2024-01-25T06:21:12;13.53;;;2.20;;
70967;SDS011;58629;48.808;8.820;2024-01-25T06:23:38;11.02;;;1.98;;
70967;SDS011;58629;48.808;8.820;2024-01-25T06:26:03;15.57;;;1.97;;
70967;SDS011;58629;48.808;8.820;2024-01-25T06:28:29;10.27;;;1.90;;
70967;SDS011;58629;48.808;8.820;2024-01-25T06:30:55;16.83;;;2.10;;
70967;SDS011;58629;48.808;8.820;2024-01-25T06:33:20;14.43;;;1.70;;
70967;SDS011;58629;48.808;8.820;2024-01-25T06:35:45;12.37;;;1.97;;
70967;SDS011;58629;48.808;8.820;2024-01-25T06:38:11;10.95;;;1.65;;
70967;SDS011;58629;48.808;8.820;2024-01-25T06:40:37;11.30;;;1.47;;
70967;SDS011;58629;48.808;8.820;2024-01-25T06:43:03;13.50;;;2.20;;
70967;SDS011;58629;48.808;8.820;2024-01-25T06:45:29;10.30;;;1.67;;
70967;SDS011;58629;48.808;8.820;2024-01-25T06:47:54;12.88;;;2.10;;
70967;SDS011;58629;48.808;8.820;2024-01-25T06:50:19;13.73;;;1.73;;
70967;SDS011;58629;48.808;8.820;2024-01-25T06:52:45;14.83;;;1.50;;
70967;SDS011;58629;48.808;8.820;2024-01-25T06:55:10;11.27;;;1.90;;
70967;SDS011;58629;48.808;8.820;2024-01-25T06:57:37;13.60;;;1.90;;
70967;SDS011;58629;48.808;8.820;2024-01-25T07:00:03;9.00;;;1.70;;
70967;SDS011;58629;48.808;8.820;2024-01-25T07:02:29;9.63;;;1.63;;
70967;SDS011;58629;48.808;8.820;2024-01-25T07:04:55;10.98;;;1.83;;
70967;SDS011;58629;48.808;8.820;2024-01-25T07:07:21;10.33;;;1.60;;
70967;SDS011;58629;48.808;8.820;2024-01-25T07:09:46;10.03;;;2.03;;
70967;SDS011;58629;48.808;8.820;2024-01-25T07:12:11;9.30;;;1.97;;
70967;SDS011;58629;48.808;8.820;2024-01-25T07:14:37;11.37;;;1.70;;
70967;SDS011;58629;48.808;8.820;2024-01-25T07:17:02;9.50;;;1.60;;
70967;SDS011;58629;48.808;8.820;2024-01-25T07:19:27;15.18;;;2.17;;
70967;SDS011;58629;48.808;8.820;2024-01-25T07:21:53;10.57;;;1.70;;
70967;SDS011;58629;48.808;8.820;2024-01-25T07:24:18;16.07;;;1.90;;
70967;SDS011;58629;48.808;8.820;2024-01-25T07:26:44;12.10;;;2.20;;
70967;SDS011;58629;48.808;8.820;2024-01-25T07:29:09;12.83;;;1.90;;
70967;SDS011;58629;48.808;8.820;2024-01-25T07:31:34;8.37;;;1.60;;
70967;SDS011;58629;48.808;8.820;2024-01-25T07:34:00;11.47;;;1.80;;
70967;SDS011;58629;48.808;8.820;2024-01-25T07:36:25;16.43;;;1.80;;
70967;SDS011;58629;48.808;8.820;2024-01-25T07:38:50;9.03;;;1.60;;
70967;SDS011;58629;48.808;8.820;2024-01-25T07:41:16;9.70;;;1.40;;
70967;SDS011;58629;48.808;8.820;2024-01-25T07:43:41;6.43;;;1.43;;
70967;SDS011;58629;48.808;8.820;2024-01-25T07:46:07;10.02;;;1.83;;
70967;SDS011;58629;48.808;8.820;2024-01-25T07:48:32;7.53;;;1.60;;
70967;SDS011;58629;48.808;8.820;2024-01-25T07:50:58;6.27;;;1.20;;
70967;SDS011;58629;48.808;8.820;2024-01-25T07:53:23;7.10;;;1.23;;
70967;SDS011;58629;48.808;8.820;2024-01-25T07:55:49;7.27;;;1.47;;
70967;SDS011;58629;48.808;8.820;2024-01-25T07:58:14;6.95;;;1.23;;
70967;SDS011;58629;48.808;8.820;2024-01-25T08:00:40;3.90;;;1.00;;
70967;SDS011;58629;48.808;8.820;2024-01-25T08:03:07;5.38;;;1.00;;
70967;SDS011;58629;48.808;8.820;2024-01-25T08:05:32;4.85;;;0.80;;
70967;SDS011;58629;48.808;8.820;2024-01-25T08:07:58;4.47;;;1.10;;
70967;SDS011;58629;48.808;8.820;2024-01-25T08:10:23;8.43;;;2.13;;
70967;SDS011;58629;48.808;8.820;2024-01-25T08:12:48;8.57;;;2.03;;
70967;SDS011;58629;48.808;8.820;2024-01-25T08:15:14;4.83;;;1.40;;
70967;SDS011;58629;48.808;8.820;2024-01-25T08:17:39;3.97;;;1.30;;
70967;SDS011;58629;48.808;8.820;2024-01-25T08:20:05;6.23;;;1.50;;
70967;SDS011;58629;48.808;8.820;2024-01-25T08:22:34;9.55;;;1.67;;
70967;SDS011;58629;48.808;8.820;2024-01-25T08:25:00;6.43;;;1.67;;
70967;SDS011;58629;48.808;8.820;2024-01-25T08:27:25;5.40;;;1.20;;
70967;SDS011;58629;48.808;8.820;2024-01-25T08:29:50;6.18;;;1.50;;
70967;SDS011;58629;48.808;8.820;2024-01-25T08:32:16;8.17;;;1.40;;
70967;SDS011;58629;48.808;8.820;2024-01-25T08:34:41;12.27;;;1.80;;
70967;SDS011;58629;48.808;8.820;2024-01-25T08:37:07;9.63;;;1.60;;
70967;SDS011;58629;48.808;8.820;2024-01-25T08:39:32;11.05;;;1.63;;
70967;SDS011;58629;48.808;8.820;2024-01-25T08:41:57;9.10;;;1.45;;
70967;SDS011;58629;48.808;8.820;2024-01-25T08:44:26;11.10;;;1.80;;
70967;SDS011;58629;48.808;8.820;2024-01-25T08:46:52;12.52;;;1.83;;
70967;SDS011;58629;48.808;8.820;2024-01-25T08:49:17;10.67;;;1.63;;
70967;SDS011;58629;48.808;8.820;2024-01-25T08:51:42;13.33;;;2.07;;
70967;SDS011;58629;48.808;8.820;2024-01-25T08:54:08;12.97;;;1.70;;
70967;SDS011;58629;48.808;8.820;2024-01-25T08:56:33;12.25;;;1.80;;
70967;SDS011;58629;48.808;8.820;2024-01-25T08:58:59;9.37;;;1.50;;
70967;SDS011;58629;48.808;8.820;2024-01-25T09:01:25;11.00;;;1.90;;
70967;SDS011;58629;48.808;8.820;2024-01-25T09:03:50;9.50;;;1.73;;
70967;SDS011;58629;48.808;8.820;2024-01-25T09:06:15;10.00;;;1.67;;
70967;SDS011;58629;48.808;8.820;2024-01-25T09:08:41;9.80;;;1.63;;
70967;SDS011;58629;48.808;8.820;2024-01-25T09:11:06;10.93;;;1.77;;
70967;SDS011;58629;48.808;8.820;2024-01-25T09:13:32;7.73;;;1.80;;
70967;SDS011;58629;48.808;8.820;2024-01-25T09:15:57;7.33;;;1.63;;
70967;SDS011;58629;48.808;8.820;2024-01-25T09:18:23;11.25;;;1.77;;
70967;SDS011;58629;48.808;8.820;2024-01-25T09:20:49;7.63;;;1.30;;
70967;SDS011;58629;48.808;8.820;2024-01-25T09:23:15;9.77;;;1.63;;
70967;SDS011;58629;48.808;8.820;2024-01-25T09:25:41;9.77;;;1.50;;
70967;SDS011;58629;48.808;8.820;2024-01-25T09:28:07;7.32;;;1.27;;
70967;SDS011;58629;48.808;8.820;2024-01-25T09:30:33;9.23;;;1.60;;
70967;SDS011;58629;48.808;8.820;2024-01-25T09:32:58;10.40;;;1.67;;
70967;SDS011;58629;48.808;8.820;2024-01-25T09:35:23;7.43;;;1.63;;
70967;SDS011;58629;48.808;8.820;2024-01-25T09:37:49;8.63;;;1.90;;
70967;SDS011;58629;48.808;8.820;2024-01-25T09:40:17;9.43;;;1.60;;
70967;SDS011;58629;48.808;8.820;2024-01-25T09:42:46;9.43;;;1.52;;
70967;SDS011;58629;48.808;8.820;2024-01-25T09:45:17;11.80;;;2.05;;
70967;SDS011;58629;48.808;8.820;2024-01-25T09:47:46;12.27;;;1.65;;
70967;SDS011;58629;48.808;8.820;2024-01-25T09:50:12;11.77;;;1.90;;
70967;SDS011;58629;48.808;8.820;2024-01-25T09:52:38;6.80;;;1.40;;
70967;SDS011;58629;48.808;8.820;2024-01-25T09:55:05;10.10;;;1.33;;
70967;SDS011;58629;48.808;8.820;2024-01-25T09:57:32;11.13;;;1.75;;
70967;SDS011;58629;48.808;8.820;2024-01-25T10:00:02;10.48;;;1.73;;
70967;SDS011;58629;48.808;8.820;2024-01-25T10:02:28;11.82;;;1.58;;
70967;SDS011;58629;48.808;8.820;2024-01-25T10:04:54;6.37;;;1.10;;
70967;SDS011;58629;48.808;8.820;2024-01-25T10:07:35;5.47;;;1.40;;
70967;SDS011;58629;48.808;8.820;2024-01-25T10:10:04;9.23;;;1.40;;
70967;SDS011;58629;48.808;8.820;2024-01-25T10:12:31;6.32;;;1.23;;
70967;SDS011;58629;48.808;8.820;2024-01-25T10:14:56;10.63;;;1.52;;
70967;SDS011;58629;48.808;8.820;2024-01-25T10:17:22;10.57;;;1.40;;
70967;SDS011;58629;48.808;8.820;2024-01-25T10:19:48;7.20;;;1.13;;
70967;SDS011;58629;48.808;8.820;2024-01-25T10:22:13;8.75;;;1.15;;
70967;SDS011;58629;48.808;8.820;2024-01-25T10:24:39;7.30;;;1.33;;
70967;SDS011;58629;48.808;8.820;2024-01-25T10:27:06;7.90;;;1.30;;
70967;SDS011;58629;48.808;8.820;2024-01-25T10:29:34;6.57;;;1.20;;
70967;SDS011;58629;48.808;8.820;2024-01-25T10:31:59;8.45;;;1.48;;
70967;SDS011;58629;48.808;8.820;2024-01-25T10:34:26;6.67;;;1.30;;
70967;SDS011;58629;48.808;8.820;2024-01-25T10:36:53;6.97;;;1.35;;
70967;SDS011;58629;48.808;8.820;2024-01-25T10:39:19;7.60;;;1.20;;
70967;SDS011;58629;48.808;8.820;2024-01-25T10:41:46;9.30;;;1.33;;
70967;SDS011;58629;48.808;8.820;2024-01-25T10:44:16;7.10;;;1.33;;
70967;SDS011;58629;48.808;8.820;2024-01-25T10:46:45;8.38;;;1.38;;
70967;SDS011;58629;48.808;8.820;2024-01-25T10:49:12;7.45;;;1.17;;
70967;SDS011;58629;48.808;8.820;2024-01-25T10:51:37;5.63;;;1.13;;
70967;SDS011;58629;48.808;8.820;2024-01-25T10:54:06;6.20;;;1.20;;
70967;SDS011;58629;48.808;8.820;2024-01-25T10:56:34;5.68;;;1.13;;
70967;SDS011;58629;48.808;8.820;2024-01-25T10:59:00;7.13;;;1.10;;
70967;SDS011;58629;48.808;8.820;2024-01-25T11:01:26;4.43;;;1.00;;
70967;SDS011;58629;48.808;8.820;2024-01-25T11:03:52;4.78;;;1.10;;
70967;SDS011;58629;48.808;8.820;2024-01-25T11:06:20;9.02;;;1.42;;
70967;SDS011;58629;48.808;8.820;2024-01-25T11:08:47;4.13;;;0.83;;
70967;SDS011;58629;48.808;8.820;2024-01-25T11:11:13;4.85;;;0.90;;
70967;SDS011;58629;48.808;8.820;2024-01-25T11:13:40;6.40;;;1.20;;
70967;SDS011;58629;48.808;8.820;2024-01-25T11:16:17;6.68;;;1.20;;
70967;SDS011;58629;48.808;8.820;2024-01-25T11:18:47;5.78;;;1.00;;
70967;SDS011;58629;48.808;8.820;2024-01-25T11:22:02;4.72;;;0.77;;
70967;SDS011;58629;48.808;8.820;2024-01-25T11:24:14;9.38;;;1.35;;
70967;SDS011;58629;48.808;8.820;2024-01-25T11:26:44;7.07;;;1.40;;
70967;SDS011;58629;48.808;8.820;2024-01-25T11:31:41;4.38;;;0.90;;
70967;SDS011;58629;48.808;8.820;2024-01-25T11:34:11;7.13;;;1.20;;
70967;SDS011;58629;48.808;8.820;2024-01-25T11:36:37;5.60;;;0.93;;
70967;SDS011;58629;48.808;8.820;2024-01-25T11:39:03;7.17;;;0.97;;
70967;SDS011;58629;48.808;8.820;2024-01-25T11:41:30;5.63;;;1.03;;
70967;SDS011;58629;48.808;8.820;2024-01-25T11:43:56;7.78;;;1.02;;
70967;SDS011;58629;48.808;8.820;2024-01-25T11:46:21;4.67;;;0.80;;
70967;SDS011;58629;48.808;8.820;2024-01-25T11:48:47;7.50;;;0.95;;
70967;SDS011;58629;48.808;8.820;2024-01-25T11:51:12;8.98;;;1.27;;
70967;SDS011;58629;48.808;8.820;2024-01-25T11:53:38;7.83;;;1.30;;
70967;SDS011;58629;48.808;8.820;2024-01-25T11:56:04;6.73;;;2.07;;
70967;SDS011;58629;48.808;8.820;2024-01-25T11:58:33;5.55;;;0.93;;
70967;SDS011;58629;48.808;8.820;2024-01-25T12:00:59;6.00;;;0.85;;
70967;SDS011;58629;48.808;8.820;2024-01-25T12:03:26;7.03;;;1.30;;
70967;SDS011;58629;48.808;8.820;2024-01-25T12:05:51;5.57;;;0.88;;
70967;SDS011;58629;48.808;8.820;2024-01-25T12:08:17;6.60;;;0.90;;
70967;SDS011;58629;48.808;8.820;2024-01-25T12:10:43;6.65;;;0.80;;
70967;SDS011;58629;48.808;8.820;2024-01-25T12:13:08;4.40;;;0.70;;
70967;SDS011;58629;48.808;8.820;2024-01-25T12:15:35;5.20;;;1.13;;
70967;SDS011;58629;48.808;8.820;2024-01-25T12:18:00;6.60;;;1.07;;
70967;SDS011;58629;48.808;8.820;2024-01-25T12:20:26;4.50;;;0.70;;
70967;SDS011;58629;48.808;8.820;2024-01-25T12:22:53;8.73;;;1.25;;
70967;SDS011;58629;48.808;8.820;2024-01-25T12:25:18;6.27;;;1.20;;
70967;SDS011;58629;48.808;8.820;2024-01-25T12:27:44;4.27;;;0.80;;
70967;SDS011;58629;48.808;8.820;2024-01-25T12:30:14;9.00;;;1.00;;
70967;SDS011;58629;48.808;8.820;2024-01-25T12:32:39;7.70;;;0.83;;
70967;SDS011;58629;48.808;8.820;2024-01-25T12:35:05;6.83;;;0.97;;
70967;SDS011;58629;48.808;8.820;2024-01-25T12:37:31;4.93;;;0.60;;
70967;SDS011;58629;48.808;8.820;2024-01-25T12:39:56;4.60;;;0.90;;
70967;SDS011;58629;48.808;8.820;2024-01-25T12:42:22;6.18;;;0.80;;
70967;SDS011;58629;48.808;8.820;2024-01-25T12:44:48;5.73;;;0.83;;
70967;SDS011;58629;48.808;8.820;2024-01-25T12:47:16;4.55;;;0.68;;
70967;SDS011;58629;48.808;8.820;2024-01-25T12:49:42;7.30;;;1.20;;
70967;SDS011;58629;48.808;8.820;2024-01-25T12:52:12;5.07;;;0.60;;
70967;SDS011;58629;48.808;8.820;2024-01-25T12:54:39;4.45;;;0.95;;
70967;SDS011;58629;48.808;8.820;2024-01-25T12:57:05;7.80;;;0.87;;
70967;SDS011;58629;48.808;8.820;2024-01-25T12:59:32;7.45;;;1.10;;
70967;SDS011;58629;48.808;8.820;2024-01-25T13:01:58;2.65;;;0.80;;
70967;SDS011;58629;48.808;8.820;2024-01-25T13:04:23;3.03;;;0.60;;
70967;SDS011;58629;48.808;8.820;2024-01-25T13:06:50;3.58;;;0.80;;
70967;SDS011;58629;48.808;8.820;2024-01-25T13:09:17;6.40;;;0.90;;
70967;SDS011;58629;48.808;8.820;2024-01-25T13:11:43;2.80;;;0.60;;
70967;SDS011;58629;48.808;8.820;2024-01-25T13:14:08;6.30;;;0.90;;
70967;SDS011;58629;48.808;8.820;2024-01-25T13:16:33;5.40;;;0.87;;
70967;SDS011;58629;48.808;8.820;2024-01-25T13:18:59;4.47;;;0.70;;
70967;SDS011;58629;48.808;8.820;2024-01-25T13:21:24;5.63;;;0.90;;
70967;SDS011;58629;48.808;8.820;2024-01-25T13:23:50;4.60;;;0.70;;
70967;SDS011;58629;48.808;8.820;2024-01-25T13:26:15;5.10;;;0.90;;
70967;SDS011;58629;48.808;8.820;2024-01-25T13:28:40;4.95;;;0.70;;
70967;SDS011;58629;48.808;8.820;2024-01-25T13:31:05;4.60;;;0.70;;
70967;SDS011;58629;48.808;8.820;2024-01-25T13:33:31;6.07;;;0.70;;
70967;SDS011;58629;48.808;8.820;2024-01-25T13:35:56;3.97;;;0.80;;
70967;SDS011;58629;48.808;8.820;2024-01-25T13:38:22;2.90;;;0.70;;
70967;SDS011;58629;48.808;8.820;2024-01-25T13:40:47;3.27;;;0.70;;
70967;SDS011;58629;48.808;8.820;2024-01-25T13:43:12;8.23;;;1.13;;
70967;SDS011;58629;48.808;8.820;2024-01-25T13:45:38;6.28;;;0.70;;
70967;SDS011;58629;48.808;8.820;2024-01-25T13:48:03;7.73;;;1.10;;
70967;SDS011;58629;48.808;8.820;2024-01-25T13:50:29;6.97;;;1.27;;
70967;SDS011;58629;48.808;8.820;2024-01-25T13:52:54;7.00;;;1.10;;
70967;SDS011;58629;48.808;8.820;2024-01-25T13:55:20;5.57;;;0.80;;
70967;SDS011;58629;48.808;8.820;2024-01-25T13:57:45;3.53;;;0.70;;
70967;SDS011;58629;48.808;8.820;2024-01-25T14:00:11;5.57;;;1.00;;
70967;SDS011;58629;48.808;8.820;2024-01-25T14:02:39;4.85;;;1.10;;
70967;SDS011;58629;48.808;8.820;2024-01-25T14:05:08;7.13;;;0.95;;
70967;SDS011;58629;48.808;8.820;2024-01-25T14:07:33;4.80;;;0.93;;
70967;SDS011;58629;48.808;8.820;2024-01-25T14:09:59;4.23;;;0.70;;
70967;SDS011;58629;48.808;8.820;2024-01-25T14:12:24;5.03;;;0.77;;
70967;SDS011;58629;48.808;8.820;2024-01-25T14:14:49;5.83;;;1.00;;
70967;SDS011;58629;48.808;8.820;2024-01-25T14:17:15;4.40;;;0.80;;
70967;SDS011;58629;48.808;8.820;2024-01-25T14:19:40;5.67;;;0.70;;
70967;SDS011;58629;48.808;8.820;2024-01-25T14:22:06;4.90;;;0.88;;
70967;SDS011;58629;48.808;8.820;2024-01-25T14:24:31;4.57;;;0.80;;
70967;SDS011;58629;48.808;8.820;2024-01-25T14:26:57;5.30;;;1.10;;
70967;SDS011;58629;48.808;8.820;2024-01-25T14:29:22;6.90;;;1.17;;
70967;SDS011;58629;48.808;8.820;2024-01-25T14:31:48;5.33;;;1.00;;
70967;SDS011;58629;48.808;8.820;2024-01-25T14:34:13;3.77;;;0.70;;
70967;SDS011;58629;48.808;8.820;2024-01-25T14:36:39;5.72;;;1.00;;